Time;durP1;ratioP1;P1;durP2;ratioP2;P2;SDS_P1;SDS_P2;PMS_P1;PMS_P2;Temp;Humidity;BMP_temperature;BMP_pressure;BME280_temperature;BME280_humidity;BME280_pressure;Samples;Min_cycle;Max_cycle;Signal;HPM_P1;HPM_P2
2022/12/27 00:01:05;;;;;;;;;;;18.10;52.50;;;;;;10248720;28;849;-69
2022/12/27 00:06:01;;;;;;;;;;;18.10;52.90;;;;;;10249286;28;890;-69
2022/12/27 00:10:56;;;;;;;;;;;18.10;52.60;;;;;;10248291;28;988;-69
2022/12/27 00:15:51;;;;;;;;;;;18.10;52.20;;;;;;10248761;28;1906;-69
2022/12/27 00:20:47;;;;;;;;;;;18.10;52.20;;;;;;10247971;28;858;-69
2022/12/27 00:25:42;;;;;;;;;;;18.10;52.30;;;;;;10247208;28;958;-69
2022/12/27 00:30:37;;;;;;;;;;;18.10;53.00;;;;;;10248945;28;892;-69
2022/12/27 00:35:33;;;;;;;;;;;18.10;52.30;;;;;;10246938;28;1141;-69
2022/12/27 00:40:28;;;;;;;;;;;18.10;52.20;;;;;;10247196;28;1910;-69
2022/12/27 00:45:24;;;;;;;;;;;18.00;52.00;;;;;;10247074;28;876;-69
2022/12/27 00:50:19;;;;;;;;;;;18.00;52.20;;;;;;10248044;28;916;-69
2022/12/27 00:55:14;;;;;;;;;;;18.10;52.30;;;;;;10246662;28;927;-69
2022/12/27 01:00:10;;;;;;;;;;;18.00;52.00;;;;;;10246394;28;1966;-69
2022/12/27 01:05:05;;;;;;;;;;;18.00;52.00;;;;;;10246523;28;853;-69
2022/12/27 01:10:00;;;;;;;;;;;18.00;52.40;;;;;;10246094;28;780;-69
2022/12/27 01:14:56;;;;;;;;;;;18.00;52.20;;;;;;10245911;28;893;-69
2022/12/27 01:19:51;;;;;;;;;;;18.00;51.90;;;;;;10245022;28;1911;-69
2022/12/27 01:24:46;;;;;;;;;;;18.00;52.00;;;;;;10245551;28;785;-69
2022/12/27 01:29:42;;;;;;;;;;;18.00;52.20;;;;;;10245984;28;783;-69
2022/12/27 01:34:37;;;;;;;;;;;18.00;52.10;;;;;;10245989;28;1341;-69
2022/12/27 01:39:32;;;;;;;;;;;18.00;52.30;;;;;;10244953;28;1910;-69
2022/12/27 01:44:28;;;;;;;;;;;18.00;51.90;;;;;;10246291;28;892;-69
2022/12/27 01:49:23;;;;;;;;;;;17.90;51.90;;;;;;10245244;28;838;-69
2022/12/27 01:54:19;;;;;;;;;;;17.90;52.00;;;;;;10244594;28;798;-69
2022/12/27 01:59:14;;;;;;;;;;;17.90;51.90;;;;;;10243793;28;1961;-69
2022/12/27 02:04:09;;;;;;;;;;;17.90;51.70;;;;;;10244017;28;967;-69
2022/12/27 02:09:05;;;;;;;;;;;17.90;52.30;;;;;;10243617;28;1557;-69
2022/12/27 02:14:00;;;;;;;;;;;17.90;51.90;;;;;;10244745;28;841;-69
2022/12/27 02:18:55;;;;;;;;;;;17.90;51.70;;;;;;10243916;28;1898;-69
2022/12/27 02:24:03;;;;;;;;;;;17.90;51.50;;;;;;10244655;28;857;-69
2022/12/27 02:28:58;;;;;;;;;;;17.90;51.70;;;;;;10243905;28;790;-69
2022/12/27 02:33:54;;;;;;;;;;;17.90;51.90;;;;;;10243896;28;1382;-69
2022/12/27 02:38:49;;;;;;;;;;;17.90;51.70;;;;;;10244189;28;1918;-69
2022/12/27 02:54:13;;;;;;;;;;;17.90;51.60;;;;;;10243674;28;592;-69
2022/12/27 02:59:09;;;;;;;;;;;17.80;51.50;;;;;;10246709;28;1905;-69
2022/12/27 03:04:04;;;;;;;;;;;17.80;51.40;;;;;;10250949;28;880;-69
2022/12/27 03:09:00;;;;;;;;;;;17.80;51.20;;;;;;10250758;28;767;-69
2022/12/27 03:19:09;;;;;;;;;;;17.80;51.50;;;;;;10250374;28;1914;-69
2022/12/27 03:34:37;;;;;;;;;;;17.80;51.50;;;;;;10249894;28;1112;-69
2022/12/27 03:39:32;;;;;;;;;;;17.80;51.50;;;;;;10249854;28;1977;-69
2022/12/27 03:44:28;;;;;;;;;;;17.70;51.30;;;;;;10249593;28;798;-69
2022/12/27 03:49:23;;;;;;;;;;;17.70;51.50;;;;;;10249014;28;861;-69
2022/12/27 03:54:25;;;;;;;;;;;17.70;51.70;;;;;;10249047;28;798;-69
2022/12/27 03:59:20;;;;;;;;;;;17.70;51.20;;;;;;10249604;28;1910;-69
2022/12/27 04:04:15;;;;;;;;;;;17.70;51.30;;;;;;10248688;28;855;-69
2022/12/27 04:35:21;;;;;;;;;;;17.70;51.00;;;;;;10248504;28;1340;-69
2022/12/27 04:55:58;;;;;;;;;;;17.80;51.30;;;;;;10246716;28;1870;-69
2022/12/27 05:06:08;;;;;;;;;;;17.80;51.30;;;;;;10245801;28;1026;-69
2022/12/27 05:16:17;;;;;;;;;;;17.80;51.20;;;;;;10245468;28;1981;-69
2022/12/27 05:21:12;;;;;;;;;;;17.80;51.30;;;;;;10246039;28;870;-69
2022/12/27 05:26:07;;;;;;;;;;;17.80;51.20;;;;;;10246182;28;794;-69
2022/12/27 05:31:03;;;;;;;;;;;17.90;51.40;;;;;;10245565;28;917;-69
2022/12/27 05:35:59;;;;;;;;;;;17.90;50.90;;;;;;10244409;28;1902;-69
2022/12/27 05:40:54;;;;;;;;;;;17.90;51.40;;;;;;10245638;28;903;-69
2022/12/27 05:45:49;;;;;;;;;;;17.90;51.10;;;;;;10244885;28;826;-69
2022/12/27 05:50:45;;;;;;;;;;;17.90;51.10;;;;;;10244749;28;1001;-69
2022/12/27 05:55:40;;;;;;;;;;;17.90;51.30;;;;;;10244619;28;944;-69
2022/12/27 06:00:35;;;;;;;;;;;17.90;51.00;;;;;;10244343;28;1894;-69
2022/12/27 06:05:31;;;;;;;;;;;17.90;50.90;;;;;;10243761;28;1000;-69
2022/12/27 06:10:26;;;;;;;;;;;18.00;50.80;;;;;;10244970;28;788;-69
2022/12/27 06:15:22;;;;;;;;;;;17.90;50.80;;;;;;10244818;28;879;-69
2022/12/27 06:20:17;;;;;;;;;;;17.90;50.80;;;;;;10243956;28;1906;-69
2022/12/27 06:25:12;;;;;;;;;;;17.90;50.70;;;;;;10244672;28;782;-69
2022/12/27 06:30:09;;;;;;;;;;;17.90;50.60;;;;;;10243898;28;814;-69
2022/12/27 06:35:05;;;;;;;;;;;17.90;50.60;;;;;;10249073;28;1296;-69
2022/12/27 06:40:00;;;;;;;;;;;17.90;50.70;;;;;;10252624;28;1914;-69
2022/12/27 06:44:55;;;;;;;;;;;17.90;50.70;;;;;;10251178;28;900;-69
2022/12/27 06:49:51;;;;;;;;;;;17.90;50.70;;;;;;10252107;28;993;-68
2022/12/27 06:54:46;;;;;;;;;;;17.90;51.10;;;;;;10251969;28;896;-69
2022/12/27 06:59:41;;;;;;;;;;;17.90;50.80;;;;;;10250523;28;1910;-69
2022/12/27 07:04:37;;;;;;;;;;;17.90;51.10;;;;;;10251576;28;877;-69
2022/12/27 07:09:32;;;;;;;;;;;18.00;51.30;;;;;;10250967;28;1123;-70
2022/12/27 07:14:27;;;;;;;;;;;18.00;51.40;;;;;;10250667;28;822;-69
2022/12/27 07:19:23;;;;;;;;;;;18.00;51.60;;;;;;10250314;28;1959;-69
2022/12/27 07:24:18;;;;;;;;;;;18.00;51.70;;;;;;10250258;28;905;-70
2022/12/27 07:29:13;;;;;;;;;;;18.00;51.90;;;;;;10250056;28;900;-69
2022/12/27 07:34:09;;;;;;;;;;;17.90;52.10;;;;;;10250714;28;1181;-70
2022/12/27 07:39:05;;;;;;;;;;;17.90;52.30;;;;;;10250318;28;1981;-69
2022/12/27 07:44:00;;;;;;;;;;;18.00;51.70;;;;;;10250078;28;815;-70
2022/12/27 07:48:56;;;;;;;;;;;18.00;51.70;;;;;;10250241;28;1822;-70
2022/12/27 07:53:51;;;;;;;;;;;18.00;51.90;;;;;;10249154;28;905;-70
2022/12/27 07:58:47;;;;;;;;;;;18.00;52.20;;;;;;10249216;28;1965;-69
2022/12/27 08:03:42;;;;;;;;;;;18.00;52.30;;;;;;10248489;28;974;-75
2022/12/27 08:08:37;;;;;;;;;;;18.00;52.20;;;;;;10248169;28;771;-70
2022/12/27 08:13:33;;;;;;;;;;;18.00;52.10;;;;;;10248392;28;878;-70
2022/12/27 08:18:28;;;;;;;;;;;18.00;51.90;;;;;;10248202;28;1906;-70
2022/12/27 08:23:23;;;;;;;;;;;18.10;52.20;;;;;;10248633;28;897;-70
2022/12/27 08:28:19;;;;;;;;;;;18.10;52.40;;;;;;10248466;28;861;-70
2022/12/27 08:33:14;;;;;;;;;;;18.00;52.80;;;;;;10248007;28;1258;-69
2022/12/27 08:38:09;;;;;;;;;;;18.00;52.70;;;;;;10247994;28;1973;-70
2022/12/27 08:43:05;;;;;;;;;;;18.10;53.10;;;;;;10248220;28;854;-69
2022/12/27 08:48:00;;;;;;;;;;;18.00;52.80;;;;;;10247063;28;934;-69
2022/12/27 08:52:56;;;;;;;;;;;18.10;52.80;;;;;;10246894;28;873;-69
2022/12/27 08:57:51;;;;;;;;;;;18.10;52.70;;;;;;10245938;28;1906;-67
2022/12/27 09:02:47;;;;;;;;;;;18.10;53.10;;;;;;10247091;28;858;-77
2022/12/27 09:07:42;;;;;;;;;;;17.90;53.30;;;;;;10245681;28;838;-78
2022/12/27 09:12:37;;;;;;;;;;;17.80;53.40;;;;;;10246714;28;893;-78
2022/12/27 09:17:33;;;;;;;;;;;17.70;53.40;;;;;;10245803;28;1961;-78
2022/12/27 09:22:28;;;;;;;;;;;17.60;53.30;;;;;;10245735;28;797;-77
2022/12/27 09:27:23;;;;;;;;;;;17.60;53.00;;;;;;10245540;28;955;-77
2022/12/27 09:32:19;;;;;;;;;;;17.60;53.10;;;;;;10245780;28;1075;-78
2022/12/27 09:37:14;;;;;;;;;;;17.60;53.10;;;;;;10244614;28;1910;-78
2022/12/27 09:42:11;;;;;;;;;;;17.60;53.20;;;;;;10245079;28;759;-78
2022/12/27 09:47:06;;;;;;;;;;;17.60;52.90;;;;;;10244280;28;1037;-75
2022/12/27 09:52:01;;;;;;;;;;;17.60;53.20;;;;;;10244821;28;779;-78
2022/12/27 09:56:57;;;;;;;;;;;17.60;53.10;;;;;;10244516;28;1907;-73
2022/12/27 10:01:52;;;;;;;;;;;17.50;52.80;;;;;;10245110;28;886;-74
2022/12/27 10:06:48;;;;;;;;;;;17.50;52.30;;;;;;10244185;28;788;-73
2022/12/27 10:11:43;;;;;;;;;;;17.50;52.60;;;;;;10244148;28;916;-77
2022/12/27 10:16:38;;;;;;;;;;;17.50;52.50;;;;;;10244249;28;1910;-75
2022/12/27 10:21:34;;;;;;;;;;;17.50;52.10;;;;;;10244716;28;970;-73
2022/12/27 10:26:29;;;;;;;;;;;17.50;52.40;;;;;;10244482;28;1142;-73
2022/12/27 10:31:25;;;;;;;;;;;17.50;52.30;;;;;;10244388;28;855;-77
2022/12/27 10:36:20;;;;;;;;;;;17.50;51.80;;;;;;10243912;28;1914;-79
2022/12/27 10:41:16;;;;;;;;;;;17.50;52.00;;;;;;10243647;28;894;-77
2022/12/27 10:46:11;;;;;;;;;;;17.50;51.90;;;;;;10243538;28;898;-78
2022/12/27 10:51:07;;;;;;;;;;;17.50;51.60;;;;;;10243998;28;802;-72
2022/12/27 10:56:03;;;;;;;;;;;17.60;51.60;;;;;;10243903;28;854;-72
2022/12/27 11:00:58;;;;;;;;;;;17.70;51.40;;;;;;10243958;28;1894;-77
2022/12/27 11:05:53;;;;;;;;;;;17.70;51.60;;;;;;10242760;28;964;-76
2022/12/27 11:10:49;;;;;;;;;;;17.60;51.70;;;;;;10243128;28;818;-78
2022/12/27 11:15:44;;;;;;;;;;;17.50;51.90;;;;;;10243638;28;853;-81
2022/12/27 11:20:39;;;;;;;;;;;17.40;51.90;;;;;;10247101;28;1906;-78
2022/12/27 11:25:35;;;;;;;;;;;17.40;52.00;;;;;;10250773;28;812;-78
2022/12/27 11:30:30;;;;;;;;;;;17.40;51.90;;;;;;10250130;28;804;-78
2022/12/27 11:35:26;;;;;;;;;;;17.40;51.90;;;;;;10250737;28;1141;-78
2022/12/27 11:40:21;;;;;;;;;;;17.40;51.60;;;;;;10249638;28;1918;-78
2022/12/27 11:45:16;;;;;;;;;;;17.40;51.70;;;;;;10250137;28;890;-78
2022/12/27 11:50:12;;;;;;;;;;;17.40;52.20;;;;;;10249406;28;839;-78
2022/12/27 11:55:07;;;;;;;;;;;17.40;51.60;;;;;;10249184;28;868;-78
2022/12/27 12:00:02;;;;;;;;;;;17.40;51.90;;;;;;10249715;28;1959;-79
2022/12/27 12:04:58;;;;;;;;;;;17.40;52.10;;;;;;10248841;28;872;-79
2022/12/27 12:09:54;;;;;;;;;;;17.40;52.00;;;;;;10248014;28;918;-78
2022/12/27 12:14:49;;;;;;;;;;;17.50;52.00;;;;;;10249010;28;882;-78
2022/12/27 12:19:44;;;;;;;;;;;17.50;51.90;;;;;;10248718;28;1961;-78
2022/12/27 12:24:40;;;;;;;;;;;17.50;51.90;;;;;;10248210;28;941;-78
2022/12/27 12:29:36;;;;;;;;;;;17.50;51.70;;;;;;10247219;28;982;-78
2022/12/27 12:34:31;;;;;;;;;;;17.50;51.90;;;;;;10247288;28;1133;-78
2022/12/27 12:39:27;;;;;;;;;;;17.50;51.90;;;;;;10247450;28;1977;-78
2022/12/27 12:44:22;;;;;;;;;;;17.50;51.80;;;;;;10247287;28;830;-78
2022/12/27 12:49:17;;;;;;;;;;;17.50;51.70;;;;;;10247641;28;818;-78
2022/12/27 12:54:13;;;;;;;;;;;17.50;51.70;;;;;;10247485;28;966;-78
2022/12/27 12:59:08;;;;;;;;;;;17.50;51.90;;;;;;10246707;28;1906;-79
2022/12/27 13:04:03;;;;;;;;;;;17.50;51.80;;;;;;10246547;28;778;-78
2022/12/27 13:08:59;;;;;;;;;;;17.50;51.70;;;;;;10246915;28;931;-78
2022/12/27 13:13:54;;;;;;;;;;;17.40;51.80;;;;;;10246703;28;843;-78
2022/12/27 13:18:49;;;;;;;;;;;17.40;51.90;;;;;;10245873;28;1963;-78
2022/12/27 13:23:45;;;;;;;;;;;17.40;51.70;;;;;;10246889;28;922;-78
2022/12/27 13:28:41;;;;;;;;;;;17.40;51.70;;;;;;10246193;28;807;-78
2022/12/27 13:33:36;;;;;;;;;;;17.40;51.90;;;;;;10244979;28;1240;-78
2022/12/27 13:38:32;;;;;;;;;;;17.40;51.80;;;;;;10244648;28;1914;-78
2022/12/27 13:43:27;;;;;;;;;;;17.40;51.60;;;;;;10244962;28;799;-78
2022/12/27 13:48:23;;;;;;;;;;;17.50;51.80;;;;;;10244690;28;989;-75
2022/12/27 13:53:18;;;;;;;;;;;17.50;51.70;;;;;;10244734;28;864;-79
2022/12/27 13:58:13;;;;;;;;;;;17.40;51.70;;;;;;10244000;28;1963;-77
2022/12/27 14:03:09;;;;;;;;;;;17.40;51.80;;;;;;10245100;28;952;-78
2022/12/27 14:08:04;;;;;;;;;;;17.50;52.00;;;;;;10244169;28;889;-78
2022/12/27 14:12:59;;;;;;;;;;;17.60;51.40;;;;;;10243503;28;849;-78
2022/12/27 14:17:55;;;;;;;;;;;17.70;51.30;;;;;;10243791;28;1969;-77
2022/12/27 14:22:50;;;;;;;;;;;17.70;51.50;;;;;;10243278;28;854;-78
2022/12/27 14:27:46;;;;;;;;;;;17.70;51.50;;;;;;10244503;28;792;-78
2022/12/27 14:32:41;;;;;;;;;;;17.70;51.20;;;;;;10243465;28;1169;-78
2022/12/27 14:37:36;;;;;;;;;;;17.80;51.70;;;;;;10244547;28;1902;-77
2022/12/27 14:42:32;;;;;;;;;;;17.80;51.50;;;;;;10243379;28;880;-78
2022/12/27 14:47:27;;;;;;;;;;;17.80;51.30;;;;;;10243269;28;861;-77
2022/12/27 14:52:23;;;;;;;;;;;17.70;50.70;;;;;;10242588;28;860;-79
2022/12/27 14:57:19;;;;;;;;;;;17.70;51.30;;;;;;10251397;28;1953;-78
2022/12/27 15:02:14;;;;;;;;;;;17.70;51.40;;;;;;10250843;28;895;-78
2022/12/27 15:07:10;;;;;;;;;;;17.70;51.20;;;;;;10252045;28;878;-79
2022/12/27 15:12:05;;;;;;;;;;;17.80;51.30;;;;;;10250555;28;903;-78
2022/12/27 15:17:00;;;;;;;;;;;17.80;51.40;;;;;;10250870;28;1956;-77
2022/12/27 15:21:56;;;;;;;;;;;17.80;51.40;;;;;;10249650;28;848;-77
2022/12/27 15:26:51;;;;;;;;;;;17.80;51.40;;;;;;10249465;28;878;-77
2022/12/27 15:31:46;;;;;;;;;;;17.70;52.10;;;;;;10249935;28;841;-78
2022/12/27 15:36:42;;;;;;;;;;;17.60;52.10;;;;;;10250764;28;1907;-78
2022/12/27 15:41:37;;;;;;;;;;;17.50;52.50;;;;;;10249428;28;802;-78
2022/12/27 15:46:32;;;;;;;;;;;17.50;52.30;;;;;;10249350;28;957;-77
2022/12/27 15:51:28;;;;;;;;;;;17.50;52.10;;;;;;10249122;28;847;-74
2022/12/27 15:56:23;;;;;;;;;;;17.50;52.00;;;;;;10247819;28;1969;-76
2022/12/27 16:01:19;;;;;;;;;;;17.40;51.90;;;;;;10248770;28;854;-76
2022/12/27 16:06:14;;;;;;;;;;;17.40;51.90;;;;;;10248709;28;876;-76
2022/12/27 16:11:09;;;;;;;;;;;17.40;51.80;;;;;;10249357;28;818;-76
2022/12/27 16:16:05;;;;;;;;;;;17.30;51.70;;;;;;10249032;28;768;-76
2022/12/27 16:21:00;;;;;;;;;;;17.30;51.80;;;;;;10248206;28;1958;-76
2022/12/27 16:25:55;;;;;;;;;;;17.30;51.50;;;;;;10248666;28;792;-77
2022/12/27 16:30:51;;;;;;;;;;;17.40;51.60;;;;;;10248585;28;964;-77
2022/12/27 16:35:46;;;;;;;;;;;17.30;51.60;;;;;;10248092;28;1189;-77
2022/12/27 16:40:41;;;;;;;;;;;17.30;51.30;;;;;;10247489;28;1910;-77
2022/12/27 16:45:37;;;;;;;;;;;17.30;51.50;;;;;;10247317;28;881;-77
2022/12/27 16:50:33;;;;;;;;;;;17.30;51.40;;;;;;10246419;28;872;-77
2022/12/27 16:55:28;;;;;;;;;;;17.30;51.50;;;;;;10246870;28;764;-77
2022/12/27 17:00:23;;;;;;;;;;;17.30;51.30;;;;;;10246669;28;1906;-75
2022/12/27 17:05:19;;;;;;;;;;;17.40;51.10;;;;;;10245998;28;947;-77
2022/12/27 17:10:14;;;;;;;;;;;17.30;51.10;;;;;;10246638;28;849;-77
2022/12/27 17:15:09;;;;;;;;;;;17.30;51.20;;;;;;10246155;28;810;-77
2022/12/27 17:20:05;;;;;;;;;;;17.30;50.60;;;;;;10244828;28;1898;-77
2022/12/27 17:25:00;;;;;;;;;;;17.30;51.00;;;;;;10245735;28;871;-77
2022/12/27 17:29:56;;;;;;;;;;;17.30;50.70;;;;;;10245031;28;972;-77
2022/12/27 17:34:53;;;;;;;;;;;17.30;50.80;;;;;;10245833;28;1231;-77
2022/12/27 17:39:49;;;;;;;;;;;17.30;50.70;;;;;;10245164;28;1961;-77
2022/12/27 17:44:45;;;;;;;;;;;17.30;50.40;;;;;;10245036;28;857;-77
2022/12/27 17:49:41;;;;;;;;;;;17.30;50.80;;;;;;10244996;28;759;-76
2022/12/27 17:59:50;;;;;;;;;;;17.30;50.70;;;;;;10244317;28;1973;-78
2022/12/27 18:04:45;;;;;;;;;;;17.30;50.20;;;;;;10244765;28;863;-78
2022/12/27 18:09:41;;;;;;;;;;;17.30;50.30;;;;;;10244397;28;1019;-78
2022/12/27 18:14:36;;;;;;;;;;;17.30;50.20;;;;;;10244265;28;807;-77
2022/12/27 18:19:31;;;;;;;;;;;17.30;50.00;;;;;;10244008;28;1906;-78
2022/12/27 18:24:27;;;;;;;;;;;17.30;50.00;;;;;;10244066;28;826;-78
2022/12/27 18:29:22;;;;;;;;;;;17.30;50.20;;;;;;10246520;28;780;-78
2022/12/27 18:34:18;;;;;;;;;;;17.30;50.00;;;;;;10251474;28;1520;-78
2022/12/27 18:39:13;;;;;;;;;;;17.30;50.10;;;;;;10252048;28;1914;-78
2022/12/27 18:44:08;;;;;;;;;;;17.30;49.80;;;;;;10252528;28;880;-78
2022/12/27 18:49:04;;;;;;;;;;;17.30;50.50;;;;;;10252416;28;781;-78
2022/12/27 18:53:59;;;;;;;;;;;17.30;49.90;;;;;;10252116;28;871;-77
2022/12/27 18:58:54;;;;;;;;;;;17.30;50.20;;;;;;10251346;28;1977;-78
2022/12/27 19:03:50;;;;;;;;;;;17.30;50.10;;;;;;10251143;28;1132;-78
2022/12/27 19:08:45;;;;;;;;;;;17.30;49.90;;;;;;10250465;28;853;-78
2022/12/27 19:13:41;;;;;;;;;;;17.30;50.30;;;;;;10250887;28;886;-78
2022/12/27 19:18:37;;;;;;;;;;;17.30;49.60;;;;;;10251205;28;1883;-77
2022/12/27 19:23:32;;;;;;;;;;;17.30;49.60;;;;;;10250452;28;875;-78
2022/12/27 19:28:28;;;;;;;;;;;17.30;49.90;;;;;;10250317;28;804;-78
2022/12/27 19:33:23;;;;;;;;;;;17.30;49.60;;;;;;10250036;28;1157;-78
2022/12/27 19:38:19;;;;;;;;;;;17.30;49.40;;;;;;10249962;28;1913;-77
2022/12/27 19:43:14;;;;;;;;;;;17.30;49.40;;;;;;10249345;28;916;-76
2022/12/27 19:48:10;;;;;;;;;;;17.30;49.80;;;;;;10249533;28;798;-71
2022/12/27 19:53:05;;;;;;;;;;;17.30;49.20;;;;;;10249588;28;806;-71
2022/12/27 19:58:00;;;;;;;;;;;17.50;49.40;;;;;;10249709;28;1965;-71
2022/12/27 20:02:56;;;;;;;;;;;17.60;49.30;;;;;;10249195;28;961;-71
2022/12/27 20:07:51;;;;;;;;;;;17.70;49.40;;;;;;10249579;28;873;-71
2022/12/27 20:12:46;;;;;;;;;;;17.80;49.40;;;;;;10249310;28;862;-71
2022/12/27 20:17:42;;;;;;;;;;;17.70;49.40;;;;;;10248384;28;1910;-71
2022/12/27 20:22:37;;;;;;;;;;;17.70;49.40;;;;;;10248276;28;871;-71
2022/12/27 20:27:33;;;;;;;;;;;17.80;49.40;;;;;;10248127;28;762;-71
2022/12/27 20:32:28;;;;;;;;;;;17.80;49.40;;;;;;10248169;28;1164;-71
2022/12/27 20:37:23;;;;;;;;;;;17.90;49.40;;;;;;10248299;28;1967;-71
2022/12/27 20:42:19;;;;;;;;;;;17.80;49.40;;;;;;10248155;28;763;-71
2022/12/27 20:47:14;;;;;;;;;;;17.80;49.40;;;;;;10246732;28;893;-71
2022/12/27 20:52:09;;;;;;;;;;;17.80;49.20;;;;;;10246923;28;790;-71
2022/12/27 20:57:05;;;;;;;;;;;17.80;49.20;;;;;;10246875;28;1902;-71
2022/12/27 21:02:00;;;;;;;;;;;17.70;49.10;;;;;;10247394;28;790;-71
2022/12/27 21:06:56;;;;;;;;;;;17.70;49.40;;;;;;10246743;28;767;-71
2022/12/27 21:11:52;;;;;;;;;;;17.70;49.40;;;;;;10246402;28;857;-71
2022/12/27 21:16:47;;;;;;;;;;;17.70;49.40;;;;;;10246937;28;1906;-71
2022/12/27 21:21:43;;;;;;;;;;;17.70;49.30;;;;;;10245429;28;889;-71
2022/12/27 21:26:38;;;;;;;;;;;17.70;49.30;;;;;;10246750;28;870;-71
2022/12/27 21:31:34;;;;;;;;;;;17.60;49.90;;;;;;10245608;28;794;-71
2022/12/27 21:36:30;;;;;;;;;;;17.70;49.50;;;;;;10245185;28;1918;-71
2022/12/27 21:41:25;;;;;;;;;;;17.60;49.50;;;;;;10245274;28;790;-71
2022/12/27 21:46:20;;;;;;;;;;;17.70;49.80;;;;;;10245129;28;853;-71
2022/12/27 21:51:16;;;;;;;;;;;17.70;49.40;;;;;;10245535;28;952;-71
2022/12/27 21:56:12;;;;;;;;;;;17.60;49.50;;;;;;10245179;28;1034;-71
2022/12/27 22:01:08;;;;;;;;;;;17.60;49.30;;;;;;10244585;28;2008;-70
2022/12/27 22:06:03;;;;;;;;;;;17.60;49.30;;;;;;10243826;28;755;-75
2022/12/27 22:10:58;;;;;;;;;;;17.50;49.80;;;;;;10245262;28;868;-75
2022/12/27 22:15:54;;;;;;;;;;;17.40;50.10;;;;;;10244870;28;872;-75
2022/12/27 22:20:50;;;;;;;;;;;17.40;50.30;;;;;;10244090;28;1967;-75
2022/12/27 22:25:45;;;;;;;;;;;17.40;50.30;;;;;;10244585;28;879;-75
2022/12/27 22:30:40;;;;;;;;;;;17.40;50.30;;;;;;10244529;28;853;-75
2022/12/27 22:35:36;;;;;;;;;;;17.30;50.50;;;;;;10244237;28;1332;-75
2022/12/27 22:40:31;;;;;;;;;;;17.40;50.60;;;;;;10244307;28;1914;-75
2022/12/27 22:45:27;;;;;;;;;;;17.40;50.40;;;;;;10243667;28;890;-75
2022/12/27 22:50:22;;;;;;;;;;;17.30;50.50;;;;;;10244148;28;901;-75
2022/12/27 22:55:17;;;;;;;;;;;17.30;50.50;;;;;;10244158;28;822;-75
2022/12/27 23:00:13;;;;;;;;;;;17.30;50.50;;;;;;10244147;28;1971;-75
2022/12/27 23:05:08;;;;;;;;;;;17.30;50.60;;;;;;10244051;28;1067;-75
2022/12/27 23:10:04;;;;;;;;;;;17.30;50.60;;;;;;10243915;28;814;-75
2022/12/27 23:14:59;;;;;;;;;;;17.30;50.50;;;;;;10244911;28;947;-75
2022/12/27 23:19:55;;;;;;;;;;;17.30;50.60;;;;;;10250854;28;1973;-75
2022/12/27 23:24:50;;;;;;;;;;;17.30;50.50;;;;;;10250446;28;858;-75
2022/12/27 23:29:45;;;;;;;;;;;17.30;50.40;;;;;;10250337;28;911;-75
2022/12/27 23:34:41;;;;;;;;;;;17.30;50.50;;;;;;10250033;28;1181;-75
2022/12/27 23:39:36;;;;;;;;;;;17.30;50.30;;;;;;10249295;28;1910;-75
2022/12/27 23:44:31;;;;;;;;;;;17.30;50.30;;;;;;10250013;28;778;-75
2022/12/27 23:49:27;;;;;;;;;;;17.30;50.50;;;;;;10249608;28;850;-75
2022/12/27 23:54:22;;;;;;;;;;;17.30;50.30;;;;;;10249973;28;822;-75
2022/12/27 23:59:17;;;;;;;;;;;17.30;50.30;;;;;;10249736;28;1910;-75
